Main page
METAR-TAF:

METAR-TAF

Airports :

NWS Office

Pohnpei, Micronesia

latitude: 06-58N, longitude: 158-13E, elevation: 39 m

Current weather observation

The report was made 57 minutes ago, at 00:54 UTC
Wind 7 kt from the East
Temperature 27°C
Humidity 84%
Pressure 1009 hPa
Visibility: 19.3 km
Broken clouds at a height of 1700 ft, Cumulonimbus.
Overcast at a height of 12000 ft
light rain showers

METAR: PTTP 300054Z 10007KT 12SM -SHRA BKN017CB OVC120 27/24 A2980 RMK SHRAB10 CB ALQDS MOV W SLP090 T02670243

Time: 12:51 (01:51 UTC)


TAF: missing

Weather observations and forecasts of more than 4000 airports (METAR and TAF reports).

The available stations are represented by yellow and red dots on the map.

Hover mouse over dot to see the name of the station.

Then click to see weather observations and forecasts.

To change the map : click on the green buttons with a black cross to zoom in, on the green button with a dash to zoom out, or on the green arrows for adjacent maps.


METAR-TAF: